^^
Datos históricos de la estación: Murcia-Puente Tocinos
Diario Informe para Abril 3, 2019 Unidades:  Ambas    Ingés   Métrico
Diario Semanal Mensual Anual
  Máxima: Mínima: Promedio:
Temperatura: 87.6 °F /  30.9 °C 72 °F /  22.2 °C 79.2 °F /  26.2 °C
Punto de rocio: 70 °F /  21.1 °C 56.8 °F /  13.8 °C 64.8 °F /  18.2 °C
Humedad: 86% 36% 64%
Velocidad viento: 12mph /  19.3km/h - 5.5mph /  8.8km/h
Racha viento: 23mph /  37km/h - -
Viento- - SE
Presión: 29.9 in /  1013.1 hPa 29.8 in /  1010.5 hPa -
Precipitación: 0 in /  0.0 mm    
 
 
Tabla de datos para Abril 3, 2019
Hora Temperatura Punto de rocio Presión Viento Velocidad viento Racha viento Humedad Intensidad lluvia(por hora) Nubes
00:00 75.4 °F /  24.1 °C 70 °F /  21.1 °C 29.9in /  1012.9hPa NE 5mph /  8km/h 7mph /  11.3km/h 83% 0in /  0.0mm
00:05 75.4 °F /  24.1 °C 70 °F /  21.1 °C 29.9in /  1012.9hPa NE 5mph /  8km/h 7mph /  11.3km/h 83% 0in /  0.0mm
00:10 75.2 °F /  24 °C 69.6 °F /  20.9 °C 29.9in /  1012.9hPa ENE 4.7mph /  7.6km/h 5.8mph /  9.3km/h 83% 0in /  0.0mm
00:15 75 °F /  23.9 °C 70 °F /  21.1 °C 29.9in /  1012.9hPa NE 5mph /  8km/h 6mph /  9.7km/h 84% 0in /  0.0mm
00:20 75 °F /  23.9 °C 70 °F /  21.1 °C 29.9in /  1013.1hPa NNE 3.1mph /  5km/h 5.8mph /  9.3km/h 84% 0in /  0.0mm
00:25 75 °F /  23.9 °C 70 °F /  21.1 °C 29.9in /  1013.1hPa NE 3mph /  4.8km/h 5mph /  8km/h 84% 0in /  0.0mm
00:30 75 °F /  23.9 °C 70 °F /  21.1 °C 29.9in /  1013.1hPa NNE 4mph /  6.4km/h 4.6mph /  7.4km/h 84% 0in /  0.0mm
00:35 75 °F /  23.9 °C 70 °F /  21.1 °C 29.9in /  1013.1hPa NNE 5mph /  8km/h 5mph /  8km/h 84% 0in /  0.0mm
00:40 75 °F /  23.9 °C 70 °F /  21.1 °C 29.9in /  1013.1hPa NNE 3.1mph /  5km/h 4.6mph /  7.4km/h 84% 0in /  0.0mm
00:45 75 °F /  23.9 °C 70 °F /  21.1 °C 29.9in /  1013.1hPa NNE 3mph /  4.8km/h 5mph /  8km/h 84% 0in /  0.0mm
00:50 75 °F /  23.9 °C 70 °F /  21.1 °C 29.9in /  1013.1hPa NNE 2.4mph /  3.9km/h 4.6mph /  7.4km/h 84% 0in /  0.0mm
00:55 74.8 °F /  23.8 °C 69.6 °F /  20.9 °C 29.9in /  1013.1hPa NNE 2mph /  3.2km/h 5mph /  8km/h 84% 0in /  0.0mm
01:00 74.8 °F /  23.8 °C 69.6 °F /  20.9 °C 29.9in /  1013.1hPa NNE 3mph /  4.8km/h 6mph /  9.7km/h 84% 0in /  0.0mm
01:05 74.8 °F /  23.8 °C 69.6 °F /  20.9 °C 29.9in /  1013.0hPa NNE 3mph /  4.8km/h 5mph /  8km/h 84% 0in /  0.0mm
01:10 74.7 °F /  23.7 °C 70 °F /  21.1 °C 29.9in /  1013.0hPa NNE 2mph /  3.2km/h 5mph /  8km/h 85% 0in /  0.0mm
01:15 74.8 °F /  23.8 °C 70 °F /  21.1 °C 29.9in /  1013.0hPa NE 2mph /  3.2km/h 5mph /  8km/h 85% 0in /  0.0mm
01:20 74.8 °F /  23.8 °C 70 °F /  21.1 °C 29.9in /  1013.1hPa NE 2mph /  3.2km/h 5mph /  8km/h 85% 0in /  0.0mm
01:25 74.7 °F /  23.7 °C 70 °F /  21.1 °C 29.9in /  1013.1hPa NE 2mph /  3.2km/h 5mph /  8km/h 85% 0in /  0.0mm
01:30 74.7 °F /  23.7 °C 69.8 °F /  21 °C 29.9in /  1013.1hPa NE 2.9mph /  4.7km/h 5.8mph /  9.3km/h 85% 0in /  0.0mm
01:35 74.7 °F /  23.7 °C 69.8 °F /  21 °C 29.9in /  1013.1hPa NE 2mph /  3.2km/h 6mph /  9.7km/h 85% 0in /  0.0mm
01:40 74.7 °F /  23.7 °C 69.8 °F /  21 °C 29.9in /  1013.1hPa NNE 2mph /  3.2km/h 4mph /  6.4km/h 85% 0in /  0.0mm
01:45 74.5 °F /  23.6 °C 69.6 °F /  20.9 °C 29.9in /  1013.1hPa NNE 2mph /  3.2km/h 5mph /  8km/h 85% 0in /  0.0mm
01:50 74.5 °F /  23.6 °C 70 °F /  21.1 °C 29.9in /  1013.0hPa ENE 2.9mph /  4.7km/h 5.8mph /  9.3km/h 86% 0in /  0.0mm
01:55 74.5 °F /  23.6 °C 70 °F /  21.1 °C 29.9in /  1013.0hPa NE 2mph /  3.2km/h 5mph /  8km/h 86% 0in /  0.0mm
02:00 74.5 °F /  23.6 °C 70 °F /  21.1 °C 29.9in /  1013.0hPa NE 2mph /  3.2km/h 5mph /  8km/h 86% 0in /  0.0mm
02:05 74.5 °F /  23.6 °C 69.6 °F /  20.9 °C 29.9in /  1012.9hPa North 2.4mph /  3.9km/h 3.5mph /  5.6km/h 85% 0in /  0.0mm
02:10 74.5 °F /  23.6 °C 69.6 °F /  20.9 °C 29.9in /  1012.9hPa North 2mph /  3.2km/h 5mph /  8km/h 85% 0in /  0.0mm
02:15 74.5 °F /  23.6 °C 69.6 °F /  20.9 °C 29.9in /  1012.9hPa NNO 2mph /  3.2km/h 3mph /  4.8km/h 85% 0in /  0.0mm
02:20 74.5 °F /  23.6 °C 69.6 °F /  20.9 °C 29.9in /  1012.9hPa NNO 1.8mph /  2.9km/h 4.6mph /  7.4km/h 85% 0in /  0.0mm
02:25 74.5 °F /  23.6 °C 69.6 °F /  20.9 °C 29.9in /  1012.9hPa NNO 2mph /  3.2km/h 4mph /  6.4km/h 85% 0in /  0.0mm
02:30 74.3 °F /  23.5 °C 69.1 °F /  20.6 °C 29.9in /  1012.9hPa NO 2.4mph /  3.9km/h 4.6mph /  7.4km/h 84% 0in /  0.0mm
02:35 74.1 °F /  23.4 °C 69.1 °F /  20.6 °C 29.9in /  1012.8hPa NO 2mph /  3.2km/h 5mph /  8km/h 84% 0in /  0.0mm
02:40 74.1 °F /  23.4 °C 69.1 °F /  20.6 °C 29.9in /  1012.8hPa NO 2.4mph /  3.9km/h 4.6mph /  7.4km/h 84% 0in /  0.0mm
02:45 73.9 °F /  23.3 °C 69.1 °F /  20.6 °C 29.9in /  1012.8hPa NO 2mph /  3.2km/h 5mph /  8km/h 85% 0in /  0.0mm
02:50 73.9 °F /  23.3 °C 68.7 °F /  20.4 °C 29.9in /  1012.6hPa NO 2mph /  3.2km/h 5mph /  8km/h 84% 0in /  0.0mm
02:55 73.9 °F /  23.3 °C 68.7 °F /  20.4 °C 29.9in /  1012.6hPa NO 2mph /  3.2km/h 5mph /  8km/h 84% 0in /  0.0mm
03:00 73.9 °F /  23.3 °C 68.7 °F /  20.4 °C 29.9in /  1012.6hPa NO 2mph /  3.2km/h 5mph /  8km/h 84% 0in /  0.0mm
03:05 73.9 °F /  23.3 °C 69.1 °F /  20.6 °C 29.9in /  1012.6hPa NO 2mph /  3.2km/h 5mph /  8km/h 85% 0in /  0.0mm
03:10 73.8 °F /  23.2 °C 69.1 °F /  20.6 °C 29.9in /  1012.6hPa ONO 2mph /  3.2km/h 2.3mph /  3.7km/h 85% 0in /  0.0mm
03:15 73.8 °F /  23.2 °C 69.1 °F /  20.6 °C 29.9in /  1012.6hPa ONO 2mph /  3.2km/h 4mph /  6.4km/h 85% 0in /  0.0mm
03:20 73.8 °F /  23.2 °C 69.1 °F /  20.6 °C 29.9in /  1012.6hPa ONO 2mph /  3.2km/h 5mph /  8km/h 85% 0in /  0.0mm
03:25 73.8 °F /  23.2 °C 69.1 °F /  20.6 °C 29.9in /  1012.6hPa ONO 2mph /  3.2km/h 5mph /  8km/h 85% 0in /  0.0mm
03:30 73.8 °F /  23.2 °C 69.1 °F /  20.6 °C 29.9in /  1012.6hPa ONO 2mph /  3.2km/h 4mph /  6.4km/h 85% 0in /  0.0mm
03:35 73.8 °F /  23.2 °C 69.1 °F /  20.6 °C 29.9in /  1012.7hPa ONO 2mph /  3.2km/h 3mph /  4.8km/h 85% 0in /  0.0mm
03:40 73.8 °F /  23.2 °C 69.1 °F /  20.6 °C 29.9in /  1012.7hPa ONO 1.4mph /  2.3km/h   85% 0in /  0.0mm
03:45 73.8 °F /  23.2 °C 69.1 °F /  20.6 °C 29.9in /  1012.7hPa ONO 1mph /  1.6km/h 3mph /  4.8km/h 85% 0in /  0.0mm
03:50 73.9 °F /  23.3 °C 69.1 °F /  20.6 °C 29.9in /  1012.6hPa Calm     85% 0in /  0.0mm
03:55 73.9 °F /  23.3 °C 68.7 °F /  20.4 °C 29.9in /  1012.6hPa Calm   5mph /  8km/h 84% 0in /  0.0mm
04:00 73.9 °F /  23.3 °C 69.1 °F /  20.6 °C 29.9in /  1012.6hPa ONO 2mph /  3.2km/h 5mph /  8km/h 85% 0in /  0.0mm
04:05 73.9 °F /  23.3 °C 68.7 °F /  20.4 °C 29.9in /  1012.6hPa Oeste 2mph /  3.2km/h 5mph /  8km/h 84% 0in /  0.0mm
04:10 74.1 °F /  23.4 °C 69.1 °F /  20.6 °C 29.9in /  1012.6hPa OSO 2.4mph /  3.9km/h 4.6mph /  7.4km/h 84% 0in /  0.0mm
04:15 74.1 °F /  23.4 °C 69.1 °F /  20.6 °C 29.9in /  1012.6hPa Oeste 2mph /  3.2km/h 6mph /  9.7km/h 84% 0in /  0.0mm
04:20 73.9 °F /  23.3 °C 68.4 °F /  20.2 °C 29.9in /  1012.5hPa ONO 3.1mph /  5km/h 4.6mph /  7.4km/h 83% 0in /  0.0mm
04:25 73.9 °F /  23.3 °C 68.7 °F /  20.4 °C 29.9in /  1012.5hPa ONO 3mph /  4.8km/h 6mph /  9.7km/h 84% 0in /  0.0mm
04:30 73.8 °F /  23.2 °C 68.5 °F /  20.3 °C 29.9in /  1012.5hPa ONO 5mph /  8km/h 6mph /  9.7km/h 84% 0in /  0.0mm
04:35 73.6 °F /  23.1 °C 68.5 °F /  20.3 °C 29.9in /  1012.5hPa Oeste 5mph /  8km/h 6mph /  9.7km/h 84% 0in /  0.0mm
04:40 73.6 °F /  23.1 °C 68.4 °F /  20.2 °C 29.9in /  1012.5hPa Oeste 3mph /  4.8km/h 6mph /  9.7km/h 84% 0in /  0.0mm
04:45 73.4 °F /  23 °C 68.4 °F /  20.2 °C 29.9in /  1012.5hPa Oeste 3mph /  4.8km/h 7mph /  11.3km/h 84% 0in /  0.0mm
04:50 73.4 °F /  23 °C 68.4 °F /  20.2 °C 29.9in /  1012.5hPa Oeste 4mph /  6.4km/h 5.8mph /  9.3km/h 84% 0in /  0.0mm
04:55 73.2 °F /  22.9 °C 68.2 °F /  20.1 °C 29.9in /  1012.5hPa Oeste 5mph /  8km/h 7mph /  11.3km/h 84% 0in /  0.0mm
05:00 73.2 °F /  22.9 °C 68.2 °F /  20.1 °C 29.9in /  1012.5hPa Oeste 5mph /  8km/h 6mph /  9.7km/h 84% 0in /  0.0mm
05:05 73 °F /  22.8 °C 68 °F /  20 °C 29.9in /  1012.6hPa ONO 5mph /  8km/h 5mph /  8km/h 84% 0in /  0.0mm
05:10 73 °F /  22.8 °C 67.8 °F /  19.9 °C 29.9in /  1012.6hPa Oeste 2.9mph /  4.7km/h 2.3mph /  3.7km/h 84% 0in /  0.0mm
05:15 73 °F /  22.8 °C 67.8 °F /  19.9 °C 29.9in /  1012.6hPa Oeste 2mph /  3.2km/h 4mph /  6.4km/h 84% 0in /  0.0mm
05:20 73 °F /  22.8 °C 67.8 °F /  19.9 °C 29.9in /  1012.4hPa Oeste 2.4mph /  3.9km/h 2.9mph /  4.7km/h 84% 0in /  0.0mm
05:25 73 °F /  22.8 °C 67.8 °F /  19.9 °C 29.9in /  1012.4hPa ONO 2.4mph /  3.9km/h 4.6mph /  7.4km/h 84% 0in /  0.0mm
05:30 72.9 °F /  22.7 °C 67.6 °F /  19.8 °C 29.9in /  1012.4hPa Oeste 2mph /  3.2km/h 5mph /  8km/h 84% 0in /  0.0mm
05:35 72.9 °F /  22.7 °C 67.6 °F /  19.8 °C 29.9in /  1012.3hPa Oeste 2mph /  3.2km/h 6mph /  9.7km/h 84% 0in /  0.0mm
05:40 72.7 °F /  22.6 °C 67.6 °F /  19.8 °C 29.9in /  1012.3hPa Oeste 3.1mph /  5km/h 4.6mph /  7.4km/h 84% 0in /  0.0mm
05:45 72.7 °F /  22.6 °C 67.6 °F /  19.8 °C 29.9in /  1012.3hPa Oeste 3mph /  4.8km/h 6mph /  9.7km/h 84% 0in /  0.0mm
05:50 72.5 °F /  22.5 °C 67.5 °F /  19.7 °C 29.9in /  1012.4hPa OSO 3.1mph /  5km/h 4.6mph /  7.4km/h 84% 0in /  0.0mm
05:55 72.3 °F /  22.4 °C 67.3 °F /  19.6 °C 29.9in /  1012.4hPa Oeste 3mph /  4.8km/h 5mph /  8km/h 84% 0in /  0.0mm
06:00 72.3 °F /  22.4 °C 67.3 °F /  19.6 °C 29.9in /  1012.4hPa OSO 3mph /  4.8km/h 5mph /  8km/h 84% 0in /  0.0mm
06:05 72.3 °F /  22.4 °C 67.3 °F /  19.6 °C 29.9in /  1012.4hPa Oeste 3mph /  4.8km/h 5mph /  8km/h 84% 0in /  0.0mm
06:10 72.3 °F /  22.4 °C 67.3 °F /  19.6 °C 29.9in /  1012.4hPa Oeste 3.1mph /  5km/h 5.8mph /  9.3km/h 84% 0in /  0.0mm
06:15 72.3 °F /  22.4 °C 67.6 °F /  19.8 °C 29.9in /  1012.4hPa Oeste 3mph /  4.8km/h 5mph /  8km/h 85% 0in /  0.0mm
06:20 72.3 °F /  22.4 °C 67.3 °F /  19.6 °C 29.9in /  1012.5hPa OSO 2mph /  3.2km/h 6mph /  9.7km/h 84% 0in /  0.0mm
06:25 72.3 °F /  22.4 °C 67.3 °F /  19.6 °C 29.9in /  1012.5hPa SO 2mph /  3.2km/h 5mph /  8km/h 84% 0in /  0.0mm
06:30 72.3 °F /  22.4 °C 67.3 °F /  19.6 °C 29.9in /  1012.5hPa SSO 2mph /  3.2km/h 5mph /  8km/h 84% 0in /  0.0mm
06:35 72.3 °F /  22.4 °C 67.3 °F /  19.6 °C 29.9in /  1012.5hPa Sur 2mph /  3.2km/h 5mph /  8km/h 84% 0in /  0.0mm
06:40 72.5 °F /  22.5 °C 66.9 °F /  19.4 °C 29.9in /  1012.5hPa SO 3.1mph /  5km/h 5.2mph /  8.4km/h 83% 0in /  0.0mm
06:45 72.3 °F /  22.4 °C 66.9 °F /  19.4 °C 29.9in /  1012.5hPa SSO 3mph /  4.8km/h 6mph /  9.7km/h 83% 0in /  0.0mm
06:50 72.3 °F /  22.4 °C 66.9 °F /  19.4 °C 29.9in /  1012.5hPa SO 4mph /  6.4km/h 4.6mph /  7.4km/h 83% 0in /  0.0mm
06:55 72.3 °F /  22.4 °C 66.6 °F /  19.2 °C 29.9in /  1012.5hPa SO 4mph /  6.4km/h 4.6mph /  7.4km/h 82% 0in /  0.0mm
07:00 72.1 °F /  22.3 °C 66.4 °F /  19.1 °C 29.9in /  1012.5hPa SSO 5mph /  8km/h 7mph /  11.3km/h 82% 0in /  0.0mm
07:05 72 °F /  22.2 °C 66.2 °F /  19 °C 29.9in /  1012.5hPa SSO 5mph /  8km/h 7mph /  11.3km/h 82% 0in /  0.0mm
07:10 72 °F /  22.2 °C 66.2 °F /  19 °C 29.9in /  1012.5hPa Oeste 4.3mph /  6.9km/h 3.6mph /  5.8km/h 82% 0in /  0.0mm
07:15 72 °F /  22.2 °C 66.2 °F /  19 °C 29.9in /  1012.5hPa OSO 5mph /  8km/h 5mph /  8km/h 82% 0in /  0.0mm
07:20 72 °F /  22.2 °C 66.2 °F /  19 °C 29.9in /  1012.5hPa SO 2.9mph /  4.7km/h 3.5mph /  5.6km/h 82% 0in /  0.0mm
07:25 72 °F /  22.2 °C 66.2 °F /  19 °C 29.9in /  1012.5hPa SO 2mph /  3.2km/h 4mph /  6.4km/h 82% 0in /  0.0mm
07:30 72.1 °F /  22.3 °C 66.4 °F /  19.1 °C 29.9in /  1012.5hPa SO 2mph /  3.2km/h 4mph /  6.4km/h 82% 0in /  0.0mm
07:35 72.1 °F /  22.3 °C 66 °F /  18.9 °C 29.9in /  1012.6hPa SO 1.8mph /  2.9km/h 3.5mph /  5.6km/h 81% 0in /  0.0mm
07:40 72.3 °F /  22.4 °C 66.2 °F /  19 °C 29.9in /  1012.6hPa SO 2mph /  3.2km/h 5mph /  8km/h 81% 0in /  0.0mm
07:45 72.3 °F /  22.4 °C 66.4 °F /  19.1 °C 29.9in /  1012.6hPa SO 2mph /  3.2km/h 5mph /  8km/h 81% 0in /  0.0mm
07:50 72.7 °F /  22.6 °C 66.6 °F /  19.2 °C 29.9in /  1012.4hPa Oeste 2mph /  3.2km/h 2.3mph /  3.7km/h 81% 0in /  0.0mm
07:55 72.9 °F /  22.7 °C 66.7 °F /  19.3 °C 29.9in /  1012.4hPa Oeste 2mph /  3.2km/h 4mph /  6.4km/h 81% 0in /  0.0mm
08:00 72.9 °F /  22.7 °C 66.7 °F /  19.3 °C 29.9in /  1012.4hPa Oeste 2mph /  3.2km/h 5mph /  8km/h 81% 0in /  0.0mm
08:05 73 °F /  22.8 °C 66.7 °F /  19.3 °C 29.9in /  1012.3hPa Oeste 2mph /  3.2km/h 4mph /  6.4km/h 81% 0in /  0.0mm
08:10 73 °F /  22.8 °C 66.9 °F /  19.4 °C 29.9in /  1012.3hPa OSO 2mph /  3.2km/h 3.6mph /  5.8km/h 81% 0in /  0.0mm
08:15 73 °F /  22.8 °C 66.9 °F /  19.4 °C 29.9in /  1012.3hPa OSO 2mph /  3.2km/h 5mph /  8km/h 81% 0in /  0.0mm
08:20 73.2 °F /  22.9 °C 66.9 °F /  19.4 °C 29.9in /  1012.5hPa Oeste 2.4mph /  3.9km/h 4.6mph /  7.4km/h 81% 0in /  0.0mm
08:25 73.2 °F /  22.9 °C 66.7 °F /  19.3 °C 29.9in /  1012.5hPa OSO 2mph /  3.2km/h 6mph /  9.7km/h 80% 0in /  0.0mm
08:30 73.6 °F /  23.1 °C 66.9 °F /  19.4 °C 29.9in /  1012.5hPa SO 2.9mph /  4.7km/h 3.5mph /  5.6km/h 80% 0in /  0.0mm
08:35 73.8 °F /  23.2 °C 66.4 °F /  19.1 °C 29.9in /  1012.5hPa SO 2mph /  3.2km/h 7mph /  11.3km/h 78% 0in /  0.0mm
08:40 73.6 °F /  23.1 °C 66.4 °F /  19.1 °C 29.9in /  1012.5hPa Sur 5.2mph /  8.4km/h 8.1mph /  13km/h 78% 0in /  0.0mm
08:45 73.6 °F /  23.1 °C 66.4 °F /  19.1 °C 29.9in /  1012.5hPa Sur 5mph /  8km/h 8mph /  12.9km/h 78% 0in /  0.0mm
08:50 73.8 °F /  23.2 °C 66.6 °F /  19.2 °C 29.9in /  1012.6hPa SSO 5mph /  8km/h 7mph /  11.3km/h 78% 0in /  0.0mm
08:55 73.8 °F /  23.2 °C 66.6 °F /  19.2 °C 29.9in /  1012.6hPa SO 5mph /  8km/h 6mph /  9.7km/h 78% 0in /  0.0mm
09:00 73.9 °F /  23.3 °C 66.6 °F /  19.2 °C 29.9in /  1012.6hPa SO 5mph /  8km/h 6mph /  9.7km/h 78% 0in /  0.0mm
09:05 74.1 °F /  23.4 °C 66.4 °F /  19.1 °C 29.9in /  1012.8hPa SO 5mph /  8km/h 7mph /  11.3km/h 77% 0in /  0.0mm
09:10 74.3 °F /  23.5 °C 66.2 °F /  19 °C 29.9in /  1012.8hPa SO 4.3mph /  6.9km/h 5.8mph /  9.3km/h 76% 0in /  0.0mm
09:15 74.5 °F /  23.6 °C 66.4 °F /  19.1 °C 29.9in /  1012.8hPa SO 5mph /  8km/h 8mph /  12.9km/h 76% 0in /  0.0mm
09:20 74.7 °F /  23.7 °C 66.6 °F /  19.2 °C 29.9in /  1012.8hPa SSO 5mph /  8km/h 8mph /  12.9km/h 76% 0in /  0.0mm
09:25 74.8 °F /  23.8 °C 66.4 °F /  19.1 °C 29.9in /  1012.8hPa SSO 5mph /  8km/h 7mph /  11.3km/h 75% 0in /  0.0mm
09:30 75 °F /  23.9 °C 66.2 °F /  19 °C 29.9in /  1012.8hPa SO 5mph /  8km/h 8mph /  12.9km/h 74% 0in /  0.0mm
09:35 75 °F /  23.9 °C 66.4 °F /  19.1 °C 29.9in /  1012.9hPa SO 5mph /  8km/h 8mph /  12.9km/h 74% 0in /  0.0mm
09:40 75.6 °F /  24.2 °C 66.4 °F /  19.1 °C 29.9in /  1012.9hPa Sur 4.3mph /  6.9km/h 5.8mph /  9.3km/h 73% 0in /  0.0mm
09:45 75.7 °F /  24.3 °C 66.6 °F /  19.2 °C 29.9in /  1012.9hPa SSO 5mph /  8km/h 7mph /  11.3km/h 73% 0in /  0.0mm
09:50 75.9 °F /  24.4 °C 65.8 °F /  18.8 °C 29.9in /  1013.0hPa SSE 4.3mph /  6.9km/h 4.6mph /  7.4km/h 71% 0in /  0.0mm
09:55 76.3 °F /  24.6 °C 66.2 °F /  19 °C 29.9in /  1013.0hPa SO 5mph /  8km/h 7mph /  11.3km/h 71% 0in /  0.0mm
10:00 76.6 °F /  24.8 °C 65.7 °F /  18.7 °C 29.9in /  1013.0hPa SO 5mph /  8km/h 8mph /  12.9km/h 69% 0in /  0.0mm
10:05 77 °F /  25 °C 66 °F /  18.9 °C 29.9in /  1013.0hPa OSO 5mph /  8km/h 6mph /  9.7km/h 69% 0in /  0.0mm
10:10 77.4 °F /  25.2 °C 66 °F /  18.9 °C 29.9in /  1013.0hPa SSO 3.1mph /  5km/h 3.1mph /  5km/h 68% 0in /  0.0mm
10:15 77.5 °F /  25.3 °C 65.3 °F /  18.5 °C 29.9in /  1013.0hPa SSO 3mph /  4.8km/h 8mph /  12.9km/h 66% 0in /  0.0mm
10:20 77.7 °F /  25.4 °C 64.9 °F /  18.3 °C 29.9in /  1013.0hPa Sur 4mph /  6.4km/h 5.8mph /  9.3km/h 65% 0in /  0.0mm
10:25 78.3 °F /  25.7 °C 64.9 °F /  18.3 °C 29.9in /  1013.0hPa Sur 5mph /  8km/h 7mph /  11.3km/h 64% 0in /  0.0mm
10:30 78.8 °F /  26 °C 64.8 °F /  18.2 °C 29.9in /  1013.0hPa SSO 3.1mph /  5km/h 2.3mph /  3.7km/h 62% 0in /  0.0mm
10:35 79.2 °F /  26.2 °C 64.6 °F /  18.1 °C 29.9in /  1013.0hPa SSE 3.1mph /  5km/h 4mph /  6.4km/h 61% 0in /  0.0mm
10:40 79.5 °F /  26.4 °C 63.3 °F /  17.4 °C 29.9in /  1013.0hPa SSO 3.1mph /  5km/h 5.8mph /  9.3km/h 58% 0in /  0.0mm
10:45 79.7 °F /  26.5 °C 62.1 °F /  16.7 °C 29.9in /  1013.0hPa Sur 3mph /  4.8km/h 6mph /  9.7km/h 55% 0in /  0.0mm
10:50 80.2 °F /  26.8 °C 61 °F /  16.1 °C 29.9in /  1012.9hPa NE 4mph /  6.4km/h 8.1mph /  13km/h 52% 0in /  0.0mm
10:55 80.4 °F /  26.9 °C 61.2 °F /  16.2 °C 29.9in /  1012.9hPa Este 4mph /  6.4km/h 8.1mph /  13km/h 52% 0in /  0.0mm
11:00 81 °F /  27.2 °C 60.6 °F /  15.9 °C 29.9in /  1012.9hPa NE 5mph /  8km/h 9mph /  14.5km/h 50% 0in /  0.0mm
11:05 81.1 °F /  27.3 °C 60.6 °F /  15.9 °C 29.9in /  1013.0hPa NNE 5mph /  8km/h 12mph /  19.3km/h 50% 0in /  0.0mm
11:10 81.1 °F /  27.3 °C 61.3 °F /  16.3 °C 29.9in /  1013.0hPa ENE 5.4mph /  8.7km/h 9.2mph /  14.8km/h 51% 0in /  0.0mm
11:15 81.5 °F /  27.5 °C 61.2 °F /  16.2 °C 29.9in /  1013.0hPa NNE 6mph /  9.7km/h 13mph /  20.9km/h 50% 0in /  0.0mm
11:20 81.1 °F /  27.3 °C 61.3 °F /  16.3 °C 29.9in /  1012.8hPa NNE 6.9mph /  11.1km/h 10.4mph /  16.7km/h 51% 0in /  0.0mm
11:25 81.3 °F /  27.4 °C 61 °F /  16.1 °C 29.9in /  1012.8hPa NE 7mph /  11.3km/h 12mph /  19.3km/h 50% 0in /  0.0mm
11:30 81.9 °F /  27.7 °C 61.3 °F /  16.3 °C 29.9in /  1012.8hPa ENE 6.4mph /  10.3km/h 11.5mph /  18.5km/h 50% 0in /  0.0mm
11:35 82.2 °F /  27.9 °C 61.7 °F /  16.5 °C 29.9in /  1012.9hPa ENE 7mph /  11.3km/h 13mph /  20.9km/h 50% 0in /  0.0mm
11:40 82.2 °F /  27.9 °C 62.2 °F /  16.8 °C 29.9in /  1012.9hPa NE 7mph /  11.3km/h 12mph /  19.3km/h 51% 0in /  0.0mm
11:45 82 °F /  27.8 °C 62.1 °F /  16.7 °C 29.9in /  1012.9hPa NE 7mph /  11.3km/h 13mph /  20.9km/h 51% 0in /  0.0mm
11:50 82.8 °F /  28.2 °C 62.8 °F /  17.1 °C 29.9in /  1013.0hPa NNE 6.4mph /  10.3km/h 9.2mph /  14.8km/h 51% 0in /  0.0mm
11:55 82.9 °F /  28.3 °C 62.4 °F /  16.9 °C 29.9in /  1013.0hPa NE 6.4mph /  10.3km/h 9.2mph /  14.8km/h 50% 0in /  0.0mm
12:00 82.8 °F /  28.2 °C 62.8 °F /  17.1 °C 29.9in /  1013.0hPa NE 6mph /  9.7km/h 12mph /  19.3km/h 51% 0in /  0.0mm
12:05 82.9 °F /  28.3 °C 62.4 °F /  16.9 °C 29.9in /  1012.9hPa NE 6mph /  9.7km/h 15mph /  24.1km/h 50% 0in /  0.0mm
12:10 82.9 °F /  28.3 °C 61.9 °F /  16.6 °C 29.9in /  1012.9hPa NNE 7mph /  11.3km/h 15mph /  24.1km/h 49% 0in /  0.0mm
12:15 83.5 °F /  28.6 °C 62.2 °F /  16.8 °C 29.9in /  1012.9hPa NE 7mph /  11.3km/h 13mph /  20.9km/h 49% 0in /  0.0mm
12:20 83.7 °F /  28.7 °C 60.6 °F /  15.9 °C 29.9in /  1012.7hPa NE 8.7mph /  14km/h 12.7mph /  20.4km/h 46% 0in /  0.0mm
12:25 83.8 °F /  28.8 °C 60.3 °F /  15.7 °C 29.9in /  1012.7hPa NE 9mph /  14.5km/h 14mph /  22.5km/h 45% 0in /  0.0mm
12:30 84 °F /  28.9 °C 59.2 °F /  15.1 °C 29.9in /  1012.7hPa North 9.7mph /  15.6km/h 9.2mph /  14.8km/h 43% 0in /  0.0mm
12:35 84.4 °F /  29.1 °C 60.1 °F /  15.6 °C 29.9in /  1012.7hPa NE 9mph /  14.5km/h 16mph /  25.7km/h 44% 0in /  0.0mm
12:40 84 °F /  28.9 °C 61 °F /  16.1 °C 29.9in /  1012.7hPa NE 8mph /  12.9km/h 17mph /  27.4km/h 46% 0in /  0.0mm
12:45 84 °F /  28.9 °C 61.5 °F /  16.4 °C 29.9in /  1012.7hPa NE 8mph /  12.9km/h 14mph /  22.5km/h 47% 0in /  0.0mm
12:50 84.6 °F /  29.2 °C 62.1 °F /  16.7 °C 29.9in /  1012.6hPa NE 7mph /  11.3km/h 15mph /  24.1km/h 47% 0in /  0.0mm
12:55 84.7 °F /  29.3 °C 62.2 °F /  16.8 °C 29.9in /  1012.6hPa NE 7mph /  11.3km/h 12mph /  19.3km/h 47% 0in /  0.0mm
13:00 85.3 °F /  29.6 °C 61 °F /  16.1 °C 29.9in /  1012.6hPa NE 6mph /  9.7km/h 15mph /  24.1km/h 44% 0in /  0.0mm
13:05 84.9 °F /  29.4 °C 62.4 °F /  16.9 °C 29.9in /  1012.4hPa Este 6.2mph /  10km/h 10.4mph /  16.7km/h 47% 0in /  0.0mm
13:10 84.7 °F /  29.3 °C 61.7 °F /  16.5 °C 29.9in /  1012.4hPa NO 7.6mph /  12.2km/h 6.9mph /  11.1km/h 46% 0in /  0.0mm
13:15 85.1 °F /  29.5 °C 62.1 °F /  16.7 °C 29.9in /  1012.4hPa NE 8mph /  12.9km/h 15mph /  24.1km/h 46% 0in /  0.0mm
13:20 84.9 °F /  29.4 °C 62.4 °F /  16.9 °C 29.9in /  1012.3hPa ENE 7.6mph /  12.2km/h 11.5mph /  18.5km/h 47% 0in /  0.0mm
13:25 85.5 °F /  29.7 °C 62.2 °F /  16.8 °C 29.9in /  1012.3hPa NE 8mph /  12.9km/h 15mph /  24.1km/h 46% 0in /  0.0mm
13:30 85.6 °F /  29.8 °C 62.4 °F /  16.9 °C 29.9in /  1012.3hPa Este 7.6mph /  12.2km/h 13.8mph /  22.2km/h 46% 0in /  0.0mm
13:35 86.4 °F /  30.2 °C 61.9 °F /  16.6 °C 29.9in /  1012.1hPa NE 8mph /  12.9km/h 15mph /  24.1km/h 44% 0in /  0.0mm
13:40 86.4 °F /  30.2 °C 61.9 °F /  16.6 °C 29.9in /  1012.1hPa NE 7.4mph /  11.9km/h 12.7mph /  20.4km/h 44% 0in /  0.0mm
13:45 86.5 °F /  30.3 °C 60.6 °F /  15.9 °C 29.9in /  1012.1hPa NE 7mph /  11.3km/h 16mph /  25.7km/h 42% 0in /  0.0mm
13:50 86.5 °F /  30.3 °C 61.3 °F /  16.3 °C 29.9in /  1012.2hPa NE 9mph /  14.5km/h 16mph /  25.7km/h 43% 0in /  0.0mm
13:55 86.4 °F /  30.2 °C 61.2 °F /  16.2 °C 29.9in /  1012.2hPa ENE 9mph /  14.5km/h 15mph /  24.1km/h 43% 0in /  0.0mm
14:00 86.5 °F /  30.3 °C 62.8 °F /  17.1 °C 29.9in /  1012.2hPa ENE 9mph /  14.5km/h 19mph /  30.6km/h 45% 0in /  0.0mm
14:05 86.5 °F /  30.3 °C 62.1 °F /  16.7 °C 29.9in /  1011.9hPa ENE 9mph /  14.5km/h 17mph /  27.4km/h 44% 0in /  0.0mm
14:10 86.2 °F /  30.1 °C 61.7 °F /  16.5 °C 29.9in /  1011.9hPa Este 9.7mph /  15.6km/h 16.1mph /  25.9km/h 44% 0in /  0.0mm
14:15 86.4 °F /  30.2 °C 61.2 °F /  16.2 °C 29.9in /  1011.9hPa ENE 9mph /  14.5km/h 17mph /  27.4km/h 43% 0in /  0.0mm
14:20 86.5 °F /  30.3 °C 61.3 °F /  16.3 °C 29.9in /  1011.8hPa NE 9.7mph /  15.6km/h 16.1mph /  25.9km/h 43% 0in /  0.0mm
14:25 86.5 °F /  30.3 °C 61.3 °F /  16.3 °C 29.9in /  1011.8hPa ENE 9mph /  14.5km/h 16mph /  25.7km/h 43% 0in /  0.0mm
14:30 86.7 °F /  30.4 °C 61 °F /  16.1 °C 29.9in /  1011.8hPa Este 7.6mph /  12.2km/h 9.2mph /  14.8km/h 42% 0in /  0.0mm
14:35 86.9 °F /  30.5 °C 61 °F /  16.1 °C 29.9in /  1011.7hPa ENE 8mph /  12.9km/h 16mph /  25.7km/h 42% 0in /  0.0mm
14:40 86.7 °F /  30.4 °C 61 °F /  16.1 °C 29.9in /  1011.7hPa ENE 8.7mph /  14km/h 15mph /  24.1km/h 42% 0in /  0.0mm
14:45 86.4 °F /  30.2 °C 60.6 °F /  15.9 °C 29.9in /  1011.7hPa NE 8.7mph /  14km/h 16.1mph /  25.9km/h 42% 0in /  0.0mm
14:50 86.7 °F /  30.4 °C 58.8 °F /  14.9 °C 29.9in /  1011.6hPa Este 8.5mph /  13.7km/h 15mph /  24.1km/h 39% 0in /  0.0mm
14:55 86.5 °F /  30.3 °C 59.4 °F /  15.2 °C 29.9in /  1011.6hPa Este 8mph /  12.9km/h 15mph /  24.1km/h 40% 0in /  0.0mm
15:00 86.7 °F /  30.4 °C 58.8 °F /  14.9 °C 29.9in /  1011.6hPa ENE 9mph /  14.5km/h 15mph /  24.1km/h 39% 0in /  0.0mm
15:05 86.7 °F /  30.4 °C 58.8 °F /  14.9 °C 29.9in /  1011.4hPa ENE 9mph /  14.5km/h 15mph /  24.1km/h 39% 0in /  0.0mm
15:10 87.1 °F /  30.6 °C 56.8 °F /  13.8 °C 29.9in /  1011.4hPa Este 8.5mph /  13.7km/h 13.8mph /  22.2km/h 36% 0in /  0.0mm
15:15 87.1 °F /  30.6 °C 59.2 °F /  15.1 °C 29.9in /  1011.4hPa ENE 8mph /  12.9km/h 16mph /  25.7km/h 39% 0in /  0.0mm
15:20 87.3 °F /  30.7 °C 58.6 °F /  14.8 °C 29.9in /  1011.4hPa Este 8mph /  12.9km/h 17mph /  27.4km/h 38% 0in /  0.0mm
15:25 87.6 °F /  30.9 °C 58.8 °F /  14.9 °C 29.9in /  1011.4hPa Este 8mph /  12.9km/h 16mph /  25.7km/h 38% 0in /  0.0mm
15:30 87.3 °F /  30.7 °C 58.6 °F /  14.8 °C 29.9in /  1011.4hPa ENE 8mph /  12.9km/h 16mph /  25.7km/h 38% 0in /  0.0mm
15:35 87.4 °F /  30.8 °C 57.4 °F /  14.1 °C 29.9in /  1011.2hPa Este 8mph /  12.9km/h 16mph /  25.7km/h 36% 0in /  0.0mm
15:40 87.1 °F /  30.6 °C 57.7 °F /  14.3 °C 29.9in /  1011.2hPa NE 9.7mph /  15.6km/h 9.2mph /  14.8km/h 37% 0in /  0.0mm
15:45 87.3 °F /  30.7 °C 57.7 °F /  14.3 °C 29.9in /  1011.2hPa NE 9mph /  14.5km/h 18mph /  29km/h 37% 0in /  0.0mm
15:50 87.3 °F /  30.7 °C 58.6 °F /  14.8 °C 29.9in /  1011.3hPa Este 8.5mph /  13.7km/h 19.6mph /  31.5km/h 38% 0in /  0.0mm
15:55 87.4 °F /  30.8 °C 58.6 °F /  14.8 °C 29.9in /  1011.3hPa ENE 8mph /  12.9km/h 16mph /  25.7km/h 38% 0in /  0.0mm
16:00 87.1 °F /  30.6 °C 59.2 °F /  15.1 °C 29.9in /  1011.3hPa NE 10mph /  16.1km/h 22mph /  35.4km/h 39% 0in /  0.0mm
16:05 86.9 °F /  30.5 °C 57.6 °F /  14.2 °C 29.9in /  1011.1hPa NE 10mph /  16.1km/h 22mph /  35.4km/h 37% 0in /  0.0mm
16:10 87.1 °F /  30.6 °C 59.2 °F /  15.1 °C 29.9in /  1011.1hPa ENE 10mph /  16.1km/h 17mph /  27.4km/h 39% 0in /  0.0mm
16:15 87.3 °F /  30.7 °C 57 °F /  13.9 °C 29.9in /  1011.1hPa ENE 10mph /  16.1km/h 16mph /  25.7km/h 36% 0in /  0.0mm
16:20 87.1 °F /  30.6 °C 58.5 °F /  14.7 °C 29.9in /  1011.2hPa Este 9.7mph /  15.6km/h 12.7mph /  20.4km/h 38% 0in /  0.0mm
16:25 86.5 °F /  30.3 °C 57.9 °F /  14.4 °C 29.9in /  1011.2hPa SE 9.7mph /  15.6km/h 18.5mph /  29.8km/h 38% 0in /  0.0mm
16:30 87.1 °F /  30.6 °C 57.7 °F /  14.3 °C 29.9in /  1011.2hPa Este 10mph /  16.1km/h 15mph /  24.1km/h 37% 0in /  0.0mm
16:35 86.9 °F /  30.5 °C 59 °F /  15 °C 29.9in /  1011.2hPa ENE 10mph /  16.1km/h 17mph /  27.4km/h 39% 0in /  0.0mm
16:40 86.5 °F /  30.3 °C 58.6 °F /  14.8 °C 29.9in /  1011.2hPa ENE 10.2mph /  16.4km/h 13.8mph /  22.2km/h 39% 0in /  0.0mm
16:45 86.4 °F /  30.2 °C 58.5 °F /  14.7 °C 29.9in /  1011.2hPa NE 10mph /  16.1km/h 21mph /  33.8km/h 39% 0in /  0.0mm
16:50 86.4 °F /  30.2 °C 57.7 °F /  14.3 °C 29.9in /  1011.2hPa ENE 10.2mph /  16.4km/h 16.1mph /  25.9km/h 38% 0in /  0.0mm
16:55 86.5 °F /  30.3 °C 59.4 °F /  15.2 °C 29.9in /  1011.2hPa ENE 10mph /  16.1km/h 17mph /  27.4km/h 40% 0in /  0.0mm
17:00 86.7 °F /  30.4 °C 61 °F /  16.1 °C 29.9in /  1011.2hPa ENE 9mph /  14.5km/h 18mph /  29km/h 42% 0in /  0.0mm
17:05 86.5 °F /  30.3 °C 60.6 °F /  15.9 °C 29.9in /  1011.0hPa ENE 9mph /  14.5km/h 18mph /  29km/h 42% 0in /  0.0mm
17:10 86 °F /  30 °C 58.8 °F /  14.9 °C 29.9in /  1011.0hPa NE 10mph /  16.1km/h 15mph /  24.1km/h 40% 0in /  0.0mm
17:15 85.6 °F /  29.8 °C 60.1 °F /  15.6 °C 29.9in /  1011.0hPa NE 10mph /  16.1km/h 21mph /  33.8km/h 42% 0in /  0.0mm
17:20 86 °F /  30 °C 59.5 °F /  15.3 °C 29.9in /  1011.0hPa ENE 10.7mph /  17.2km/h 12.7mph /  20.4km/h 41% 0in /  0.0mm
17:25 85.6 °F /  29.8 °C 58.5 °F /  14.7 °C 29.9in /  1011.0hPa NE 10mph /  16.1km/h 23mph /  37km/h 40% 0in /  0.0mm
17:30 85.6 °F /  29.8 °C 58.5 °F /  14.7 °C 29.9in /  1011.0hPa ENE 10.2mph /  16.4km/h 16.1mph /  25.9km/h 40% 0in /  0.0mm
17:35 85.6 °F /  29.8 °C 58.5 °F /  14.7 °C 29.9in /  1011.0hPa Este 10.2mph /  16.4km/h 18.4mph /  29.6km/h 40% 0in /  0.0mm
17:40 85.6 °F /  29.8 °C 58.5 °F /  14.7 °C 29.9in /  1011.0hPa ENE 11.2mph /  18km/h 13.8mph /  22.2km/h 40% 0in /  0.0mm
17:45 85.8 °F /  29.9 °C 60.1 °F /  15.6 °C 29.9in /  1011.0hPa ENE 12mph /  19.3km/h 17mph /  27.4km/h 42% 0in /  0.0mm
17:50 85.5 °F /  29.7 °C 59.7 °F /  15.4 °C 29.9in /  1010.9hPa ENE 9mph /  14.5km/h 19mph /  30.6km/h 42% 0in /  0.0mm
17:55 85.3 °F /  29.6 °C 58.8 °F /  14.9 °C 29.9in /  1010.9hPa NE 9mph /  14.5km/h 20mph /  32.2km/h 41% 0in /  0.0mm
18:00 85.3 °F /  29.6 °C 58.8 °F /  14.9 °C 29.9in /  1010.9hPa NE 10mph /  16.1km/h 21mph /  33.8km/h 41% 0in /  0.0mm
18:05 84.9 °F /  29.4 °C 57.9 °F /  14.4 °C 29.9in /  1010.8hPa NE 10mph /  16.1km/h 17mph /  27.4km/h 40% 0in /  0.0mm
18:10 84.7 °F /  29.3 °C 57.7 °F /  14.3 °C 29.9in /  1010.8hPa NE 11.4mph /  18.3km/h 21.9mph /  35.2km/h 40% 0in /  0.0mm
18:15 84.9 °F /  29.4 °C 58.6 °F /  14.8 °C 29.9in /  1010.8hPa NE 11.4mph /  18.3km/h 16.1mph /  25.9km/h 41% 0in /  0.0mm
18:20 85.3 °F /  29.6 °C 58.8 °F /  14.9 °C 29.9in /  1010.8hPa NNE 10mph /  16.1km/h 15mph /  24.1km/h 41% 0in /  0.0mm
18:25 84.9 °F /  29.4 °C 57.9 °F /  14.4 °C 29.9in /  1010.8hPa NE 10mph /  16.1km/h 17mph /  27.4km/h 40% 0in /  0.0mm
18:30 84.9 °F /  29.4 °C 58.6 °F /  14.8 °C 29.9in /  1010.8hPa ENE 10.2mph /  16.4km/h 19.6mph /  31.5km/h 41% 0in /  0.0mm
18:35 84.7 °F /  29.3 °C 59.2 °F /  15.1 °C 29.8in /  1010.7hPa NE 10.2mph /  16.4km/h 16.1mph /  25.9km/h 42% 0in /  0.0mm
18:40 84.6 °F /  29.2 °C 60.3 °F /  15.7 °C 29.8in /  1010.7hPa NNE 10mph /  16.1km/h 12.7mph /  20.4km/h 44% 0in /  0.0mm
18:45 84.4 °F /  29.1 °C 61.3 °F /  16.3 °C 29.8in /  1010.7hPa NE 10mph /  16.1km/h 19mph /  30.6km/h 46% 0in /  0.0mm
18:50 84 °F /  28.9 °C 62.2 °F /  16.8 °C 29.8in /  1010.6hPa NE 10mph /  16.1km/h 16.1mph /  25.9km/h 48% 0in /  0.0mm
18:55 83.8 °F /  28.8 °C 61.3 °F /  16.3 °C 29.8in /  1010.6hPa NE 10mph /  16.1km/h 18mph /  29km/h 47% 0in /  0.0mm
19:00 83.7 °F /  28.7 °C 62.4 °F /  16.9 °C 29.8in /  1010.6hPa NE 10mph /  16.1km/h 19mph /  30.6km/h 49% 0in /  0.0mm
19:05 83.1 °F /  28.4 °C 63.1 °F /  17.3 °C 29.8in /  1010.5hPa NE 10mph /  16.1km/h 14mph /  22.5km/h 51% 0in /  0.0mm
19:10 83.3 °F /  28.5 °C 62.8 °F /  17.1 °C 29.8in /  1010.5hPa ENE 9.7mph /  15.6km/h 16.1mph /  25.9km/h 50% 0in /  0.0mm
19:15 83.5 °F /  28.6 °C 63.3 °F /  17.4 °C 29.8in /  1010.5hPa NE 9.7mph /  15.6km/h 15mph /  24.1km/h 51% 0in /  0.0mm
19:20 82.9 °F /  28.3 °C 64 °F /  17.8 °C 29.8in /  1010.6hPa North 9.2mph /  14.8km/h 16.1mph /  25.9km/h 53% 0in /  0.0mm
19:25 82.9 °F /  28.3 °C 64.6 °F /  18.1 °C 29.8in /  1010.6hPa NE 9mph /  14.5km/h 15mph /  24.1km/h 54% 0in /  0.0mm
19:30 82.8 °F /  28.2 °C 64.9 °F /  18.3 °C 29.8in /  1010.6hPa NE 9mph /  14.5km/h 15mph /  24.1km/h 55% 0in /  0.0mm
19:35 82.8 °F /  28.2 °C 65.5 °F /  18.6 °C 29.8in /  1010.7hPa ENE 9mph /  14.5km/h 16mph /  25.7km/h 56% 0in /  0.0mm
19:40 82.9 °F /  28.3 °C 65.7 °F /  18.7 °C 29.8in /  1010.7hPa ENE 6.4mph /  10.3km/h 8.1mph /  13km/h 56% 0in /  0.0mm
19:45 82.9 °F /  28.3 °C 65.7 °F /  18.7 °C 29.8in /  1010.7hPa ENE 7mph /  11.3km/h 12mph /  19.3km/h 56% 0in /  0.0mm
19:50 82.8 °F /  28.2 °C 65.5 °F /  18.6 °C 29.9in /  1010.8hPa NE 6.9mph /  11.1km/h 11.5mph /  18.5km/h 56% 0in /  0.0mm
19:55 82.8 °F /  28.2 °C 65.5 °F /  18.6 °C 29.9in /  1010.8hPa ENE 7mph /  11.3km/h 14mph /  22.5km/h 56% 0in /  0.0mm
20:00 82.8 °F /  28.2 °C 66 °F /  18.9 °C 29.9in /  1010.8hPa ENE 7mph /  11.3km/h 10mph /  16.1km/h 57% 0in /  0.0mm
20:05 82.8 °F /  28.2 °C 65.8 °F /  18.8 °C 29.9in /  1010.8hPa ENE 7mph /  11.3km/h 15mph /  24.1km/h 57% 0in /  0.0mm
20:10 82.4 °F /  28 °C 64 °F /  17.8 °C 29.9in /  1010.8hPa ENE 7mph /  11.3km/h 15mph /  24.1km/h 54% 0in /  0.0mm
20:15 82.4 °F /  28 °C 62.4 °F /  16.9 °C 29.9in /  1010.8hPa NE 7mph /  11.3km/h 15mph /  24.1km/h 51% 0in /  0.0mm
20:20 82.6 °F /  28.1 °C 65.3 °F /  18.5 °C 29.9in /  1011.0hPa NE 8mph /  12.9km/h 13mph /  20.9km/h 56% 0in /  0.0mm
20:25 82.2 °F /  27.9 °C 64.9 °F /  18.3 °C 29.9in /  1011.0hPa NE 8mph /  12.9km/h 13mph /  20.9km/h 56% 0in /  0.0mm
20:30 82.2 °F /  27.9 °C 64.9 °F /  18.3 °C 29.9in /  1011.0hPa NNE 5.9mph /  9.5km/h 11.2mph /  18km/h 56% 0in /  0.0mm
20:35 82.2 °F /  27.9 °C 64.9 °F /  18.3 °C 29.9in /  1011.0hPa NE 6mph /  9.7km/h 11mph /  17.7km/h 56% 0in /  0.0mm
20:40 82 °F /  27.8 °C 65.3 °F /  18.5 °C 29.9in /  1011.0hPa ESE 6.4mph /  10.3km/h 9.2mph /  14.8km/h 57% 0in /  0.0mm
20:45 81.9 °F /  27.7 °C 65.7 °F /  18.7 °C 29.9in /  1011.0hPa ENE 7mph /  11.3km/h 12mph /  19.3km/h 58% 0in /  0.0mm
20:50 81.5 °F /  27.5 °C 65.3 °F /  18.5 °C 29.9in /  1011.1hPa ENE 7mph /  11.3km/h 14mph /  22.5km/h 58% 0in /  0.0mm
20:55 81.3 °F /  27.4 °C 65.7 °F /  18.7 °C 29.9in /  1011.1hPa ENE 7mph /  11.3km/h 12mph /  19.3km/h 59% 0in /  0.0mm
21:00 81 °F /  27.2 °C 65.8 °F /  18.8 °C 29.9in /  1011.1hPa ENE 6mph /  9.7km/h 10mph /  16.1km/h 60% 0in /  0.0mm
21:05 81 °F /  27.2 °C 66.2 °F /  19 °C 29.9in /  1011.1hPa ENE 6mph /  9.7km/h 12mph /  19.3km/h 61% 0in /  0.0mm
21:10 80.8 °F /  27.1 °C 66.6 °F /  19.2 °C 29.9in /  1011.1hPa ENE 6mph /  9.7km/h 10mph /  16.1km/h 62% 0in /  0.0mm
21:15 80.4 °F /  26.9 °C 66.7 °F /  19.3 °C 29.9in /  1011.1hPa NE 6mph /  9.7km/h 12mph /  19.3km/h 63% 0in /  0.0mm
21:20 80.1 °F /  26.7 °C 66.4 °F /  19.1 °C 29.9in /  1011.2hPa ENE 5.9mph /  9.5km/h 9.2mph /  14.8km/h 63% 0in /  0.0mm
21:25 80.1 °F /  26.7 °C 66.7 °F /  19.3 °C 29.9in /  1011.2hPa ENE 6mph /  9.7km/h 9mph /  14.5km/h 64% 0in /  0.0mm
21:30 79.7 °F /  26.5 °C 66.4 °F /  19.1 °C 29.9in /  1011.2hPa ENE 5.2mph /  8.4km/h 11.5mph /  18.5km/h 64% 0in /  0.0mm
21:35 79.3 °F /  26.3 °C 66 °F /  18.9 °C 29.9in /  1011.4hPa NE 5mph /  8km/h 12mph /  19.3km/h 64% 0in /  0.0mm
21:40 79.3 °F /  26.3 °C 66.6 °F /  19.2 °C 29.9in /  1011.4hPa ENE 6mph /  9.7km/h 10mph /  16.1km/h 65% 0in /  0.0mm
21:45 79.2 °F /  26.2 °C 66.7 °F /  19.3 °C 29.9in /  1011.4hPa ENE 6mph /  9.7km/h 9mph /  14.5km/h 66% 0in /  0.0mm
21:50 78.8 °F /  26 °C 66.9 °F /  19.4 °C 29.9in /  1011.6hPa NE 6mph /  9.7km/h 9mph /  14.5km/h 67% 0in /  0.0mm
21:55 78.6 °F /  25.9 °C 66.7 °F /  19.3 °C 29.9in /  1011.6hPa ENE 6mph /  9.7km/h 7mph /  11.3km/h 67% 0in /  0.0mm
22:00 78.4 °F /  25.8 °C 66.6 °F /  19.2 °C 29.9in /  1011.6hPa ENE 5mph /  8km/h 10mph /  16.1km/h 67% 0in /  0.0mm
22:05 78.4 °F /  25.8 °C 66.9 °F /  19.4 °C 29.9in /  1011.8hPa ENE 5mph /  8km/h 10mph /  16.1km/h 68% 0in /  0.0mm
22:10 78.3 °F /  25.7 °C 66.7 °F /  19.3 °C 29.9in /  1011.8hPa ENE 4mph /  6.4km/h 4.6mph /  7.4km/h 68% 0in /  0.0mm
22:15 78.3 °F /  25.7 °C 66.7 °F /  19.3 °C 29.9in /  1011.8hPa ENE 5mph /  8km/h 6mph /  9.7km/h 68% 0in /  0.0mm
22:20 78.1 °F /  25.6 °C 66.2 °F /  19 °C 29.9in /  1012.1hPa ENE 3.6mph /  5.8km/h 8.1mph /  13km/h 67% 0in /  0.0mm
22:25 78.1 °F /  25.6 °C 65.7 °F /  18.7 °C 29.9in /  1012.1hPa ENE 3mph /  4.8km/h 8mph /  12.9km/h 66% 0in /  0.0mm
22:30 77.9 °F /  25.5 °C 65.7 °F /  18.7 °C 29.9in /  1012.1hPa NE 4mph /  6.4km/h 5.8mph /  9.3km/h 66% 0in /  0.0mm
22:35 77.7 °F /  25.4 °C 65.5 °F /  18.6 °C 29.9in /  1012.4hPa ENE 5mph /  8km/h 6mph /  9.7km/h 66% 0in /  0.0mm
22:40 77.7 °F /  25.4 °C 65.5 °F /  18.6 °C 29.9in /  1012.4hPa ENE 2mph /  3.2km/h 7mph /  11.3km/h 66% 0in /  0.0mm
22:45 77.5 °F /  25.3 °C 65.3 °F /  18.5 °C 29.9in /  1012.4hPa ENE 2mph /  3.2km/h 6mph /  9.7km/h 66% 0in /  0.0mm
22:50 77.5 °F /  25.3 °C 65.3 °F /  18.5 °C 29.9in /  1012.5hPa NE 3.1mph /  5km/h 6.9mph /  11.1km/h 66% 0in /  0.0mm
22:55 77.5 °F /  25.3 °C 65.3 °F /  18.5 °C 29.9in /  1012.5hPa NE 3mph /  4.8km/h 7mph /  11.3km/h 66% 0in /  0.0mm
23:00 77.4 °F /  25.2 °C 65.5 °F /  18.6 °C 29.9in /  1012.5hPa NE 5mph /  8km/h 6mph /  9.7km/h 67% 0in /  0.0mm
23:05 77.4 °F /  25.2 °C 66 °F /  18.9 °C 29.9in /  1012.7hPa NE 5mph /  8km/h 6mph /  9.7km/h 68% 0in /  0.0mm
23:10 77.2 °F /  25.1 °C 65.8 °F /  18.8 °C 29.9in /  1012.7hPa NE 3.6mph /  5.8km/h 4.7mph /  7.6km/h 68% 0in /  0.0mm
23:15 77.2 °F /  25.1 °C 66.2 °F /  19 °C 29.9in /  1012.7hPa NE 3mph /  4.8km/h 7mph /  11.3km/h 69% 0in /  0.0mm
23:20 77 °F /  25 °C 66 °F /  18.9 °C 29.9in /  1012.8hPa NE 3.6mph /  5.8km/h 5.8mph /  9.3km/h 69% 0in /  0.0mm
23:25 76.8 °F /  24.9 °C 65.8 °F /  18.8 °C 29.9in /  1012.8hPa NE 3mph /  4.8km/h 6mph /  9.7km/h 69% 0in /  0.0mm
23:30 76.8 °F /  24.9 °C 65.8 °F /  18.8 °C 29.9in /  1012.8hPa NE 4mph /  6.4km/h 4.6mph /  7.4km/h 69% 0in /  0.0mm
23:35 76.6 °F /  24.8 °C 65.7 °F /  18.7 °C 29.9in /  1012.9hPa NE 5mph /  8km/h 6mph /  9.7km/h 69% 0in /  0.0mm
23:40 76.6 °F /  24.8 °C 66 °F /  18.9 °C 29.9in /  1012.9hPa NE 3.6mph /  5.8km/h 4.6mph /  7.4km/h 70% 0in /  0.0mm
23:45 76.5 °F /  24.7 °C 65.8 °F /  18.8 °C 29.9in /  1012.9hPa NNE 3mph /  4.8km/h 6mph /  9.7km/h 70% 0in /  0.0mm
23:50 76.3 °F /  24.6 °C 65.8 °F /  18.8 °C 29.9in /  1012.9hPa NE 4.3mph /  6.9km/h 6.2mph /  10km/h 70% 0in /  0.0mm
23:55 76.1 °F /  24.5 °C 65.7 °F /  18.7 °C 29.9in /  1012.9hPa NE 5mph /  8km/h 7mph /  11.3km/h 70% 0in /  0.0mm
Murcia-Puente Tocinos, España
Compliments of Weather Underground - 3 mb

La estación de MeteoMurcia.com, publica sus datos en los siguientes proyectos:

Weather Underground PWS IMURCIAP2 Meteoclimatic www.awekas.at

W3Counter
Web Analytics